^^
Grace C. Lehan Memorial Weather Station Historical Data
Daily Summary for July 2, 2021 Units:  Metric    English   Both
Daily Weekly Monthly Yearly
  High: Low: Average:
Temperature: 27.7 °C 12.9 °C 20.4 °C
Dew Point: 17.1 °C 10.9 °C 13.9 °C
Humidity: 90.9% 40.7% 68%
Wind Speed: 3.2km/h 0km/h 0.3km/h
Wind Gust: 11.3km/h - -
Wind- - SSW
Pressure: 1023.2 hPa 1020.5 hPa -
Precipitation: 0 mm    
 
 
Tabular Data for July 2, 2021
Time Temperature Dew Point Pressure Wind Wind Speed Wind Gust Humidity Rainfall Rate (Hourly) solar
00:00 16.8 °C 12.1 °C 1022.2 hPa Calm     74% 0 mm 0 W/m2
00:09 16.7 °C 12 °C 1022.2 hPa Calm     74% 0 mm 0 W/m2
00:14 16.6 °C 11.9 °C 1022.2 hPa Calm     74% 0 mm 0 W/m2
00:19 16.5 °C 11.9 °C 1022.2 hPa Calm     74% 0 mm 0 W/m2
00:24 16.5 °C 11.8 °C 1022.2 hPa Calm     74% 0 mm 0 W/m2
00:29 16.4 °C 11.8 °C 1022.2 hPa Calm     74% 0 mm 0 W/m2
00:34 16.3 °C 11.7 °C 1022.2 hPa Calm     74% 0 mm 0 W/m2
00:39 16.3 °C 11.7 °C 1022.2 hPa Calm     74.1% 0 mm 0 W/m2
00:44 16.2 °C 11.7 °C 1022.2 hPa Calm     74.8% 0 mm 0 W/m2
00:49 16.1 °C 11.7 °C 1022.2 hPa Calm     75% 0 mm 0 W/m2
00:54 16 °C 11.6 °C 1021.9 hPa Calm     75% 0 mm 0 W/m2
00:59 15.9 °C 11.6 °C 1021.9 hPa Calm     75% 0 mm 0 W/m2
01:04 15.9 °C 11.5 °C 1022.2 hPa Calm     75% 0 mm 0 W/m2
01:09 15.8 °C 11.6 °C 1022.2 hPa Calm     75.8% 0 mm 0 W/m2
01:14 15.8 °C 11.6 °C 1022.2 hPa Calm     76% 0 mm 0 W/m2
01:19 15.7 °C 11.5 °C 1022.2 hPa Calm     76% 0 mm 0 W/m2
01:24 15.7 °C 11.4 °C 1022.2 hPa Calm     76% 0 mm 0 W/m2
01:29 15.6 °C 11.6 °C 1022.2 hPa Calm     76.5% 0 mm 0 W/m2
01:34 15.6 °C 11.6 °C 1022.2 hPa Calm     77% 0 mm 0 W/m2
01:39 15.4 °C 11.6 °C 1022.2 hPa Calm     77.4% 0 mm 0 W/m2
01:44 15.4 °C 11.6 °C 1022.2 hPa Calm     77.9% 0 mm 0 W/m2
01:49 15.3 °C 11.5 °C 1022.2 hPa Calm     78% 0 mm 0 W/m2
01:54 15.2 °C 11.6 °C 1022.2 hPa Calm     78.7% 0 mm 0 W/m2
01:59 15.1 °C 11.5 °C 1022.2 hPa Calm     79% 0 mm 0 W/m2
02:04 15 °C 11.5 °C 1022.2 hPa Calm     79.5% 0 mm 0 W/m2
02:09 14.9 °C 11.5 °C 1022.2 hPa Calm     80% 0 mm 0 W/m2
02:14 14.9 °C 11.4 °C 1021.9 hPa Calm     80% 0 mm 0 W/m2
02:19 14.8 °C 11.4 °C 1021.9 hPa Calm     80% 0 mm 0 W/m2
02:24 14.7 °C 11.3 °C 1022.2 hPa Calm     80% 0 mm 0 W/m2
02:29 14.7 °C 11.4 °C 1021.9 hPa Calm     81% 0 mm 0 W/m2
02:34 14.6 °C 11.4 °C 1021.9 hPa Calm     81% 0 mm 0 W/m2
02:39 14.6 °C 11.4 °C 1022.2 hPa Calm     81.5% 0 mm 0 W/m2
02:44 14.6 °C 11.5 °C 1022.2 hPa Calm     82% 0 mm 0 W/m2
02:49 14.5 °C 11.4 °C 1021.9 hPa Calm     82% 0 mm 0 W/m2
02:54 14.4 °C 11.4 °C 1021.9 hPa Calm     82% 0 mm 0 W/m2
02:59 14.4 °C 11.4 °C 1021.9 hPa Calm     82.1% 0 mm 0 W/m2
03:04 14.4 °C 11.6 °C 1021.9 hPa Calm     83% 0 mm 0 W/m2
03:09 14.3 °C 11.5 °C 1021.9 hPa Calm     83% 0 mm 0 W/m2
03:14 14.2 °C 11.4 °C 1021.9 hPa Calm     83% 0 mm 0 W/m2
03:19 14.2 °C 11.3 °C 1022.2 hPa Calm     83.1% 0 mm 0 W/m2
03:24 14.1 °C 11.3 °C 1022.2 hPa Calm     83.6% 0 mm 0 W/m2
03:29 14 °C 11.4 °C 1022.2 hPa Calm     84% 0 mm 0 W/m2
03:34 13.9 °C 11.3 °C 1022.2 hPa Calm     84% 0 mm 0 W/m2
03:39 13.9 °C 11.2 °C 1022.2 hPa Calm     84% 0 mm 0 W/m2
03:44 13.8 °C 11.3 °C 1022.2 hPa Calm     84.8% 0 mm 0 W/m2
03:49 13.8 °C 11.3 °C 1022.2 hPa Calm     85% 0 mm 0 W/m2
03:54 13.7 °C 11.2 °C 1022.2 hPa Calm     85% 0 mm 0 W/m2
03:59 13.7 °C 11.3 °C 1022.2 hPa Calm     85.6% 0 mm 0 W/m2
04:09 13.6 °C 11.3 °C 1022.2 hPa Calm     86% 0 mm 0 W/m2
04:14 13.6 °C 11.3 °C 1022.2 hPa Calm     86% 0 mm 0 W/m2
04:19 13.5 °C 11.2 °C 1022.2 hPa Calm     86% 0 mm 0 W/m2
04:24 13.4 °C 11.2 °C 1022.2 hPa Calm     86.1% 0 mm 0 W/m2
04:29 13.4 °C 11.3 °C 1022.2 hPa Calm     87% 0 mm 0 W/m2
04:34 13.3 °C 11.2 °C 1022.2 hPa Calm     87% 0 mm 0 W/m2
04:39 13.3 °C 11.2 °C 1022.2 hPa Calm     87% 0 mm 0 W/m2
04:44 13.3 °C 11.2 °C 1022.2 hPa Calm     87% 0 mm 0 W/m2
04:49 13.2 °C 11.1 °C 1022.2 hPa Calm     87% 0 mm 0 W/m2
04:54 13.2 °C 11.1 °C 1022.2 hPa Calm     87% 0 mm 0 W/m2
04:59 13.2 °C 11.1 °C 1022.2 hPa Calm     87% 0 mm 0 W/m2
05:04 13.1 °C 11 °C 1022.2 hPa Calm     87.2% 0 mm 0 W/m2
05:09 13.1 °C 10.9 °C 1022.2 hPa Calm     87% 0 mm 0 W/m2
05:14 13 °C 11.1 °C 1022.2 hPa Calm     88% 0 mm 0 W/m2
05:19 12.9 °C 11.1 °C 1022.2 hPa Calm     88% 0 mm 0 W/m2
05:24 12.9 °C 11 °C 1022.2 hPa Calm     88% 0 mm 5 W/m2
05:29 12.9 °C 11.1 °C 1022.2 hPa Calm     88.5% 0 mm 7 W/m2
05:34 12.9 °C 11.1 °C 1022.2 hPa Calm     89% 0 mm 9 W/m2
05:39 12.9 °C 11.2 °C 1022.2 hPa Calm     89% 0 mm 14 W/m2
05:44 12.9 °C 11.2 °C 1022.2 hPa Calm     89% 0 mm 16 W/m2
05:48 12.9 °C 11.2 °C 1022.6 hPa Calm     89% 0 mm 18 W/m2
06:14 12.9 °C 11.2 °C 1022.9 hPa Calm     89% 0 mm 37 W/m2
06:19 13 °C 11.2 °C 1022.9 hPa Calm     89% 0 mm 35 W/m2
06:24 13.1 °C 11.3 °C 1022.9 hPa Calm     89.4% 0 mm 40 W/m2
06:29 13.1 °C 11.5 °C 1022.9 hPa Calm     90% 0 mm 44 W/m2
06:34 13.2 °C 11.6 °C 1022.9 hPa Calm     90% 0 mm 58 W/m2
06:39 13.3 °C 11.7 °C 1022.6 hPa Calm     90% 0 mm 70 W/m2
06:44 13.5 °C 11.9 °C 1022.6 hPa Calm     90% 0 mm 81 W/m2
06:49 13.8 °C 12.3 °C 1022.6 hPa Calm     90.9% 0 mm 81 W/m2
06:54 14.2 °C 12.7 °C 1022.6 hPa Calm     90.2% 0 mm 81 W/m2
06:59 14.7 °C 12.8 °C 1022.6 hPa Calm     88.6% 0 mm 81 W/m2
07:04 15.1 °C 13.1 °C 1022.6 hPa Calm     87.5% 0 mm 86 W/m2
07:09 15.6 °C 13.3 °C 1022.6 hPa Calm     86.5% 0 mm 100 W/m2
07:14 16 °C 13.5 °C 1022.6 hPa Calm     85% 0 mm 118 W/m2
07:19 16.4 °C 13.6 °C 1022.6 hPa Calm     83.2% 0 mm 223 W/m2
07:24 16.9 °C 13.9 °C 1022.6 hPa Calm     82.1% 0 mm 267 W/m2
07:29 17.4 °C 13.9 °C 1022.6 hPa Calm     80.4% 0 mm 237 W/m2
07:34 17.7 °C 13.8 °C 1022.9 hPa Calm     78% 0 mm 290 W/m2
07:39 17.9 °C 13.7 °C 1022.9 hPa Calm     76.8% 0 mm 290 W/m2
07:44 18 °C 13.8 °C 1022.9 hPa Calm     76.5% 0 mm 278 W/m2
07:49 18.1 °C 14.1 °C 1022.6 hPa Calm     77.2% 0 mm 353 W/m2
07:54 18.3 °C 14.2 °C 1022.9 hPa Calm     77.1% 0 mm 353 W/m2
07:59 18.5 °C 14.3 °C 1022.9 hPa Calm     76.7% 0 mm 316 W/m2
08:00 18.6 °C 14.3 °C 1022.9 hPa Calm     76% 0 mm 281 W/m2
08:09 18.9 °C 14.3 °C 1022.9 hPa Calm     74.6% 0 mm 417 W/m2
08:14 19.1 °C 14.4 °C 1023.2 hPa Calm     74.3% 0 mm 434 W/m2
08:19 19.3 °C 14.5 °C 1023.2 hPa Calm     73.7% 0 mm 434 W/m2
08:24 19.4 °C 14.6 °C 1023.2 hPa Calm     73.5% 0 mm 475 W/m2
08:29 19.7 °C 14.9 °C 1022.9 hPa Calm     73.9% 0 mm 432 W/m2
08:34 19.8 °C 14.8 °C 1022.9 hPa Calm     72.6% 0 mm 399 W/m2
08:39 20.1 °C 14.9 °C 1022.9 hPa Calm     72.5% 0 mm 504 W/m2
08:44 20.3 °C 14.8 °C 1022.9 hPa Calm     70.7% 0 mm 504 W/m2
08:49 20.7 °C 15.2 °C 1022.9 hPa Calm     71.2% 0 mm 459 W/m2
08:54 20.9 °C 15 °C 1022.9 hPa Calm     69.1% 0 mm 468 W/m2
08:59 21.1 °C 15.3 °C 1022.9 hPa Calm     69.3% 0 mm 503 W/m2
09:04 21.3 °C 15.3 °C 1022.9 hPa Calm     68.8% 0 mm 605 W/m2
09:09 21.6 °C 15.4 °C 1022.9 hPa Calm     68% 0 mm 635 W/m2
09:14 21.9 °C 15.4 °C 1022.9 hPa Calm     66.6% 0 mm 570 W/m2
09:19 22.1 °C 15.5 °C 1022.9 hPa Calm     66.4% 0 mm 617 W/m2
09:24 22.3 °C 15.7 °C 1022.9 hPa Calm   1.6 km/h 66.2% 0 mm 617 W/m2
09:29 22.5 °C 15.5 °C 1022.9 hPa East 0.2 km/h 3.2 km/h 64.7% 0 mm 617 W/m2
09:34 22.7 °C 15.6 °C 1022.9 hPa Calm   3.2 km/h 64.5% 0 mm 642 W/m2
09:39 22.8 °C 15.6 °C 1022.9 hPa Calm     63.4% 0 mm 742 W/m2
09:44 22.9 °C 15.8 °C 1022.9 hPa Calm     64.1% 0 mm 742 W/m2
09:49 23.1 °C 15.7 °C 1022.9 hPa Calm   1.6 km/h 62.9% 0 mm 733 W/m2
09:54 23.2 °C 15.5 °C 1022.9 hPa Calm   1.6 km/h 61.8% 0 mm 756 W/m2
09:59 23.4 °C 15.9 °C 1022.9 hPa East 0.2 km/h 3.2 km/h 62.7% 0 mm 756 W/m2
10:04 23.8 °C 16.4 °C 1022.6 hPa Calm   3.2 km/h 63.4% 0 mm 752 W/m2
10:09 24.1 °C 16.3 °C 1022.6 hPa Calm     61.6% 0 mm 793 W/m2
10:14 24.4 °C 16.4 °C 1022.6 hPa Calm     61.1% 0 mm 798 W/m2
10:19 24.6 °C 15.9 °C 1022.6 hPa Calm     58.7% 0 mm 765 W/m2
10:24 24.4 °C 16.2 °C 1022.6 hPa Calm     60.1% 0 mm 837 W/m2
10:29 24.6 °C 16.5 °C 1022.6 hPa Calm     60.5% 0 mm 795 W/m2
10:34 24.9 °C 16.7 °C 1022.6 hPa Calm   1.6 km/h 60% 0 mm 780 W/m2
10:39 25.2 °C 16.3 °C 1022.6 hPa Calm   1.6 km/h 57.9% 0 mm 766 W/m2
10:44 25.2 °C 16.2 °C 1022.6 hPa Calm   1.6 km/h 57.7% 0 mm 677 W/m2
10:49 25.2 °C 16.5 °C 1022.6 hPa Calm   1.6 km/h 58.6% 0 mm 809 W/m2
10:54 25.3 °C 16.9 °C 1022.6 hPa Calm   1.6 km/h 59.8% 0 mm 837 W/m2
10:59 25.6 °C 17.1 °C 1022.6 hPa Calm   1.6 km/h 59.4% 0 mm 872 W/m2
11:04 25.8 °C 16.6 °C 1022.6 hPa SSE 0.3 km/h 6.4 km/h 56.5% 0 mm 826 W/m2
11:09 26 °C 16.4 °C 1022.6 hPa SSE 0.2 km/h 6.4 km/h 55.4% 0 mm 879 W/m2
11:14 26.1 °C 16.6 °C 1022.2 hPa Calm   6.4 km/h 56% 0 mm 849 W/m2
11:19 26.2 °C 16.9 °C 1022.6 hPa South 0.8 km/h 6.4 km/h 56.7% 0 mm 930 W/m2
11:24 26.3 °C 16.6 °C 1022.6 hPa Calm   6.4 km/h 55.5% 0 mm 909 W/m2
11:29 26.4 °C 16.8 °C 1022.6 hPa SSW 0.2 km/h 6.4 km/h 55.7% 0 mm 940 W/m2
11:34 26.6 °C 16.8 °C 1022.2 hPa Calm   6.4 km/h 54.9% 0 mm 951 W/m2
11:39 26.6 °C 16.4 °C 1022.2 hPa WSW 0.2 km/h 4.8 km/h 53.5% 0 mm 963 W/m2
11:44 26.8 °C 16.4 °C 1022.2 hPa WSW 0.5 km/h 4.8 km/h 53.1% 0 mm 963 W/m2
11:49 26.9 °C 15.8 °C 1022.2 hPa SW 0.5 km/h 6.4 km/h 50.7% 0 mm 960 W/m2
11:54 27 °C 16.4 °C 1022.2 hPa SW 0.3 km/h 6.4 km/h 52.3% 0 mm 946 W/m2
11:59 27.1 °C 15.7 °C 1021.9 hPa SW 0.3 km/h 6.4 km/h 49.6% 0 mm 958 W/m2
12:09 27.1 °C 14.5 °C 1021.9 hPa SSW 0.2 km/h 6.4 km/h 45.9% 0 mm 974 W/m2
12:14 27.2 °C 15.8 °C 1021.9 hPa SSW 1.8 km/h 6.4 km/h 49.9% 0 mm 962 W/m2
12:19 27.4 °C 14 °C 1021.9 hPa Calm   6.4 km/h 43.8% 0 mm 972 W/m2
12:24 27.4 °C 13.7 °C 1021.9 hPa SW 0.5 km/h 8 km/h 43% 0 mm 970 W/m2
12:29 27.6 °C 14.8 °C 1021.9 hPa WSW 0.6 km/h 8 km/h 45.7% 0 mm 977 W/m2
12:34 27.7 °C 14.4 °C 1021.9 hPa WSW 0.6 km/h 8 km/h 44.1% 0 mm 977 W/m2
12:39 27.7 °C 14.1 °C 1021.6 hPa SW 1 km/h 4.8 km/h 43.5% 0 mm 969 W/m2
12:44 27.5 °C 13.3 °C 1021.6 hPa SSE 1.4 km/h 6.4 km/h 41.7% 0 mm 974 W/m2
12:49 27.3 °C 13.1 °C 1021.6 hPa SSE 1.9 km/h 8 km/h 41.7% 0 mm 991 W/m2
12:54 27.2 °C 13.1 °C 1021.6 hPa SSE 0.3 km/h 8 km/h 41.7% 0 mm 1025 W/m2
12:59 27.3 °C 12.8 °C 1021.6 hPa SSE 0.5 km/h 8 km/h 40.7% 0 mm 937 W/m2
13:04 27.2 °C 13.4 °C 1021.2 hPa SSE 1 km/h 8 km/h 42.8% 0 mm 1004 W/m2
13:09 27.2 °C 14.1 °C 1021.2 hPa SSE 1.6 km/h 6.4 km/h 44.6% 0 mm 1004 W/m2
13:14 27.2 °C 14.8 °C 1021.2 hPa South 2.4 km/h 8 km/h 46.6% 0 mm 976 W/m2
13:19 27.4 °C 14.7 °C 1021.2 hPa South 0.8 km/h 8 km/h 45.9% 0 mm 1032 W/m2
13:24 27.3 °C 13.9 °C 1021.2 hPa South 0.8 km/h 8 km/h 43.6% 0 mm 766 W/m2
13:29 27.1 °C 13.9 °C 1021.2 hPa SSE 1.4 km/h 8 km/h 44.2% 0 mm 687 W/m2
13:34 26.9 °C 14.2 °C 1021.2 hPa SSE 1.1 km/h 8 km/h 45.8% 0 mm 687 W/m2
13:39 26.8 °C 14.4 °C 1021.2 hPa South 0.2 km/h 6.4 km/h 46.4% 0 mm 592 W/m2
13:44 26.8 °C 15.3 °C 1021.2 hPa Calm   6.4 km/h 49.2% 0 mm 591 W/m2
13:49 26.8 °C 14.6 °C 1020.9 hPa Calm   6.4 km/h 47.1% 0 mm 900 W/m2
13:54 26.7 °C 15 °C 1020.9 hPa Calm   6.4 km/h 48.6% 0 mm 900 W/m2
13:59 26.9 °C 15.7 °C 1020.9 hPa South 3.2 km/h 6.4 km/h 50.3% 0 mm 715 W/m2
14:04 27.1 °C 15.2 °C 1020.9 hPa SSW 0.8 km/h 9.7 km/h 48.2% 0 mm 694 W/m2
14:09 27.2 °C 15 °C 1020.9 hPa WSW 1.1 km/h 9.7 km/h 47.4% 0 mm 652 W/m2
14:14 27.2 °C 14.7 °C 1020.9 hPa South 1.8 km/h 9.7 km/h 46.5% 0 mm 865 W/m2
14:19 27.2 °C 14.8 °C 1020.9 hPa SSW 0.5 km/h 9.7 km/h 46.6% 0 mm 921 W/m2
14:24 27.3 °C 14.9 °C 1020.9 hPa SSW 1 km/h 9.7 km/h 46.6% 0 mm 819 W/m2
14:29 27.4 °C 14.7 °C 1020.5 hPa SSW 0.6 km/h 9.7 km/h 46% 0 mm 819 W/m2
14:34 27.3 °C 15.4 °C 1020.9 hPa WSW 1.3 km/h 9.7 km/h 48.1% 0 mm 965 W/m2
14:39 27.4 °C 15.1 °C 1020.5 hPa WSW 1.6 km/h 6.4 km/h 47% 0 mm 991 W/m2
14:44 27.5 °C 15.2 °C 1020.5 hPa WSW 0.8 km/h 11.3 km/h 46.9% 0 mm 949 W/m2
14:49 27.6 °C 16 °C 1020.9 hPa WSW 2.7 km/h 11.3 km/h 49.3% 0 mm 744 W/m2
14:54 27.7 °C 16 °C 1020.5 hPa WSW 1.8 km/h 11.3 km/h 48.9% 0 mm 740 W/m2
14:59 27.7 °C 15.7 °C 1020.5 hPa WSW 1.9 km/h 11.3 km/h 48% 0 mm 464 W/m2
15:04 27.4 °C 15.2 °C 1020.5 hPa SW 1 km/h 11.3 km/h 46.9% 0 mm 499 W/m2
15:09 27.3 °C 15.4 °C 1020.5 hPa SSW 1.6 km/h 6.4 km/h 48.2% 0 mm 327 W/m2
15:14 27.1 °C 15.5 °C 1020.5 hPa South 0.2 km/h 6.4 km/h 49% 0 mm 323 W/m2
15:19 26.9 °C 14.9 °C 1020.5 hPa South 0.2 km/h 6.4 km/h 47.7% 0 mm 330 W/m2
15:24 26.7 °C 14.7 °C 1020.5 hPa South 1.4 km/h 6.4 km/h 47.7% 0 mm 299 W/m2
15:29 26.5 °C 14.4 °C 1020.5 hPa South 1 km/h 6.4 km/h 47.4% 0 mm 246 W/m2
15:34 26.3 °C 15.3 °C 1020.5 hPa SSW 1.1 km/h 6.4 km/h 50.6% 0 mm 260 W/m2
15:39 26.1 °C 15.3 °C 1020.5 hPa SW 3.2 km/h 9.7 km/h 51.4% 0 mm 239 W/m2
15:44 25.8 °C 14.8 °C 1020.5 hPa South 1 km/h 9.7 km/h 50.9% 0 mm 306 W/m2
15:49 25.6 °C 15 °C 1020.5 hPa SW 2.7 km/h 11.3 km/h 52.2% 0 mm 306 W/m2
15:54 25.3 °C 14.8 °C 1020.5 hPa SSW 1.8 km/h 11.3 km/h 52% 0 mm 281 W/m2
15:59 25.1 °C 14.7 °C 1020.5 hPa SSW 0.6 km/h 11.3 km/h 52.4% 0 mm 299 W/m2
16:00 25.1 °C 14.8 °C 1020.5 hPa SSW 0.5 km/h 11.3 km/h 53% 0 mm 281 W/m2
16:09 25 °C 15 °C 1020.5 hPa SSW 1.6 km/h 8 km/h 53.9% 0 mm 336 W/m2
16:14 24.9 °C 14.9 °C 1020.5 hPa SSW 2.1 km/h 8 km/h 53.8% 0 mm 232 W/m2
16:19 24.7 °C 15.1 °C 1020.5 hPa South 2.4 km/h 11.3 km/h 55.1% 0 mm 250 W/m2
16:24 24.6 °C 15.2 °C 1020.5 hPa South 1.4 km/h 11.3 km/h 56% 0 mm 258 W/m2
16:29 24.4 °C 15.5 °C 1020.5 hPa SSW 1.9 km/h 11.3 km/h 57.4% 0 mm 264 W/m2
16:34 24.4 °C 15.7 °C 1020.5 hPa SSW 1.6 km/h 11.3 km/h 58.4% 0 mm 251 W/m2
16:39 24.3 °C 15.7 °C 1020.5 hPa South 1.8 km/h 8 km/h 58.5% 0 mm 234 W/m2
16:44 24.2 °C 15.8 °C 1020.5 hPa South 1.4 km/h 8 km/h 59.6% 0 mm 234 W/m2
16:49 24.1 °C 16.2 °C 1020.5 hPa South 1 km/h 8 km/h 61% 0 mm 183 W/m2
16:54 24.1 °C 16.2 °C 1020.5 hPa SSW 1.9 km/h 9.7 km/h 61.5% 0 mm 127 W/m2
16:59 23.9 °C 16.1 °C 1020.5 hPa South 1.4 km/h 9.7 km/h 61.8% 0 mm 135 W/m2
17:04 23.7 °C 16.3 °C 1020.5 hPa South 0.8 km/h 9.7 km/h 63.1% 0 mm 134 W/m2
17:09 23.7 °C 16.4 °C 1020.9 hPa South 0.3 km/h 6.4 km/h 64% 0 mm 118 W/m2
17:14 23.6 °C 16.5 °C 1020.9 hPa South 1.9 km/h 11.3 km/h 64.6% 0 mm 120 W/m2
17:19 23.4 °C 16.5 °C 1020.9 hPa SW 0.8 km/h 11.3 km/h 65.2% 0 mm 141 W/m2
17:24 23.3 °C 16.4 °C 1020.9 hPa SSW 1.1 km/h 11.3 km/h 65.1% 0 mm 153 W/m2
17:29 23.2 °C 16.2 °C 1020.5 hPa SSW 0.3 km/h 11.3 km/h 65% 0 mm 153 W/m2
17:34 23.1 °C 16.3 °C 1020.5 hPa SW 0.6 km/h 11.3 km/h 65.8% 0 mm 142 W/m2
17:39 23 °C 16.2 °C 1020.5 hPa SSW 0.8 km/h 6.4 km/h 65.7% 0 mm 142 W/m2
17:43 22.9 °C 16.3 °C 1020.5 hPa SSW 0.8 km/h 6.4 km/h 66% 0 mm 135 W/m2
18:00 22.8 °C 15.9 °C 1020.5 hPa Calm   6.4 km/h 65% 0 mm 120 W/m2
18:30 22.3 °C 16.1 °C 1020.5 hPa Calm   6.4 km/h 68% 0 mm 59 W/m2
19:00 21.8 °C 15.8 °C 1020.5 hPa Calm   8 km/h 69% 0 mm 41 W/m2
19:30 21.4 °C 15.7 °C 1020.5 hPa Calm   4.8 km/h 70% 0 mm 32 W/m2
20:04 20.8 °C 15.6 °C 1020.9 hPa Calm     72% 0 mm 0 W/m2
20:09 20.7 °C 15.7 °C 1020.9 hPa SW 0.6 km/h 3.2 km/h 72.7% 0 mm 0 W/m2
20:14 20.6 °C 15.6 °C 1020.9 hPa SW 0.6 km/h 4.8 km/h 73% 0 mm 0 W/m2
20:19 20.5 °C 15.5 °C 1020.9 hPa Calm   4.8 km/h 73% 0 mm 0 W/m2
20:24 20.4 °C 15.6 °C 1020.9 hPa Calm   4.8 km/h 73.8% 0 mm 0 W/m2
20:29 20.3 °C 15.6 °C 1020.9 hPa Calm   4.8 km/h 74% 0 mm 0 W/m2
20:34 20.3 °C 15.5 °C 1020.9 hPa Calm   4.8 km/h 74% 0 mm 0 W/m2
20:39 20.2 °C 15.4 °C 1021.2 hPa Calm   1.6 km/h 74.2% 0 mm 0 W/m2
20:44 20.1 °C 15.6 °C 1021.2 hPa SW 0.2 km/h 4.8 km/h 75% 0 mm 0 W/m2
20:49 20.1 °C 15.5 °C 1021.2 hPa SW 1.3 km/h 6.4 km/h 75% 0 mm 0 W/m2
20:54 20 °C 15.5 °C 1021.2 hPa SW 0.8 km/h 6.4 km/h 75.1% 0 mm 0 W/m2
20:59 19.9 °C 15.4 °C 1021.6 hPa Calm   6.4 km/h 75.2% 0 mm 0 W/m2
21:04 19.9 °C 15.5 °C 1021.6 hPa Calm   6.4 km/h 75.9% 0 mm 0 W/m2
21:09 19.8 °C 15.4 °C 1021.6 hPa Calm     76% 0 mm 0 W/m2
21:14 19.8 °C 15.4 °C 1021.6 hPa Calm     76% 0 mm 0 W/m2
21:19 19.7 °C 15.3 °C 1021.6 hPa Calm   1.6 km/h 76% 0 mm 0 W/m2
21:24 19.6 °C 15.4 °C 1021.6 hPa Calm   1.6 km/h 76.7% 0 mm 0 W/m2
21:29 19.6 °C 15.3 °C 1021.6 hPa Calm   1.6 km/h 76.6% 0 mm 0 W/m2
21:33 19.5 °C 15.4 °C 1021.6 hPa Calm   1.6 km/h 77% 0 mm 0 W/m2
22:00 18.9 °C 14.8 °C 1021.6 hPa Calm     77% 0 mm 0 W/m2
22:30 18.3 °C 14.4 °C 1021.2 hPa Calm     78% 0 mm 0 W/m2
23:00 17.7 °C 14 °C 1020.9 hPa Calm   4.8 km/h 79% 0 mm 0 W/m2
23:30 17.3 °C 13.8 °C 1020.9 hPa Calm   1.6 km/h 80% 0 mm 0 W/m2
Hartford County Weather
Compliments of Weather Underground - 4 mb